createdAt,value
2023-03-04T00:00:46.257Z,65.66
2023-03-04T00:03:15.698Z,66.42
2023-03-04T00:05:43.005Z,65.57
2023-03-04T00:08:10.153Z,64.50
2023-03-04T00:10:37.624Z,65.88
2023-03-04T00:13:04.789Z,66.64
2023-03-04T00:15:31.954Z,66.85
2023-03-04T00:17:59.421Z,67.84
2023-03-04T00:20:45.247Z,67.50
2023-03-04T00:23:12.859Z,67.36
2023-03-04T00:25:41.462Z,69.03
2023-03-04T00:28:10.416Z,68.10
2023-03-04T00:30:37.877Z,66.58
2023-03-04T00:33:05.046Z,66.04
2023-03-04T00:35:32.262Z,64.98
2023-03-04T00:37:59.693Z,63.78
2023-03-04T00:40:26.901Z,63.70
2023-03-04T00:42:54.106Z,63.38
2023-03-04T00:45:21.543Z,62.28
2023-03-04T00:47:48.674Z,62.14
2023-03-04T00:50:15.986Z,60.79
2023-03-04T00:52:43.529Z,60.32
2023-03-04T00:55:10.846Z,61.50
2023-03-04T00:57:38.166Z,61.79
2023-03-04T01:00:07.341Z,62.20
2023-03-04T01:02:35.162Z,63.25
2023-03-04T01:05:02.349Z,64.09
2023-03-04T01:07:29.829Z,64.15
2023-03-04T01:09:57.315Z,65.78
2023-03-04T01:12:24.958Z,63.68
2023-03-04T01:14:52.450Z,62.76
2023-03-04T01:17:19.730Z,61.84
2023-03-04T01:19:47.751Z,61.41
2023-03-04T01:22:16.702Z,62.22
2023-03-04T01:24:44.024Z,61.18
2023-03-04T01:27:11.377Z,62.67
2023-03-04T01:29:38.810Z,61.66
2023-03-04T01:32:06.055Z,61.46
2023-03-04T01:34:33.250Z,63.86
2023-03-04T01:37:04.680Z,63.60
2023-03-04T01:39:31.902Z,63.75
2023-03-04T01:41:59.072Z,64.27
2023-03-04T01:44:26.538Z,64.55
2023-03-04T01:46:54.298Z,64.08
2023-03-04T01:49:21.752Z,64.03
2023-03-04T01:51:50.496Z,64.56
2023-03-04T01:54:17.676Z,65.30
2023-03-04T01:56:45.466Z,65.40
2023-03-04T01:59:12.930Z,64.76
2023-03-04T02:01:41.301Z,65.55
2023-03-04T02:04:08.934Z,64.69
2023-03-04T02:06:37.510Z,63.71
2023-03-04T02:09:04.851Z,62.22
2023-03-04T02:11:33.133Z,59.61
2023-03-04T02:14:01.023Z,59.36
2023-03-04T02:16:28.230Z,58.84
2023-03-04T02:18:55.484Z,59.65
2023-03-04T02:21:23.743Z,58.42
2023-03-04T02:24:06.433Z,58.54
2023-03-04T02:26:35.180Z,60.19
2023-03-04T02:29:02.791Z,60.10
2023-03-04T02:31:34.671Z,60.67
2023-03-04T02:34:02.894Z,60.47
2023-03-04T02:36:30.218Z,61.10
2023-03-04T02:39:01.398Z,58.81
2023-03-04T02:41:29.964Z,59.45
2023-03-04T02:43:58.152Z,60.70
2023-03-04T02:46:25.404Z,60.83
2023-03-04T02:48:53.100Z,60.60
2023-03-04T02:51:20.270Z,60.35
2023-03-04T02:53:48.269Z,60.80
2023-03-04T02:56:15.874Z,60.37
2023-03-04T02:58:43.058Z,60.18
2023-03-04T03:01:11.637Z,60.51
2023-03-04T03:03:39.298Z,57.70
2023-03-04T03:06:06.576Z,57.61
2023-03-04T03:08:33.852Z,57.63
2023-03-04T03:11:01.463Z,59.39
2023-03-04T03:13:29.969Z,59.19
2023-03-04T03:15:57.126Z,59.19
2023-03-04T03:18:24.682Z,58.41
2023-03-04T03:20:51.876Z,58.23
2023-03-04T03:23:20.991Z,58.99
2023-03-04T03:25:48.409Z,58.39
2023-03-04T03:28:15.735Z,58.49
2023-03-04T03:30:42.926Z,57.39
2023-03-04T03:33:10.363Z,57.60
2023-03-04T03:35:38.357Z,58.47
2023-03-04T03:38:06.937Z,59.23
2023-03-04T03:40:34.468Z,58.01
2023-03-04T03:43:01.725Z,56.97
2023-03-04T03:45:28.880Z,56.23
2023-03-04T03:47:56.491Z,56.32
2023-03-04T03:50:23.680Z,56.95
2023-03-04T03:52:50.873Z,57.49
2023-03-04T03:55:18.333Z,55.93
2023-03-04T03:57:45.500Z,57.10
2023-03-04T04:00:12.893Z,56.04
2023-03-04T04:02:40.866Z,58.16
2023-03-04T04:05:08.537Z,59.41
2023-03-04T04:07:36.798Z,54.80
2023-03-04T04:10:05.562Z,53.46
2023-03-04T04:12:32.997Z,53.70
2023-03-04T04:15:01.109Z,53.01
2023-03-04T04:17:28.907Z,53.09
2023-03-04T04:19:56.300Z,52.85
2023-03-04T04:22:23.710Z,54.25
2023-03-04T04:24:51.425Z,53.34
2023-03-04T04:27:18.880Z,53.27
2023-03-04T04:29:46.200Z,52.45
2023-03-04T04:32:13.824Z,52.89
2023-03-04T04:34:41.300Z,51.54
2023-03-04T04:37:08.655Z,52.02
2023-03-04T04:39:36.162Z,52.18
2023-03-04T04:42:03.627Z,53.33
2023-03-04T04:44:30.870Z,54.27
2023-03-04T04:46:58.315Z,50.93
2023-03-04T04:49:26.660Z,49.37
2023-03-04T04:51:53.839Z,50.56
2023-03-04T04:54:21.259Z,54.39
2023-03-04T04:56:48.444Z,51.73
2023-03-04T04:59:15.764Z,54.68
2023-03-04T05:01:43.433Z,53.04
2023-03-04T05:04:11.763Z,53.54
2023-03-04T05:06:39.347Z,53.76
2023-03-04T05:09:07.321Z,54.30
2023-03-04T05:11:34.824Z,55.21
2023-03-04T05:14:02.193Z,53.84
2023-03-04T05:16:29.919Z,54.46
2023-03-04T05:18:57.388Z,55.12
2023-03-04T05:21:24.942Z,55.54
2023-03-04T05:23:52.582Z,54.35
2023-03-04T05:26:20.968Z,55.31
2023-03-04T05:28:48.310Z,54.78
2023-03-04T05:31:16.558Z,55.35
2023-03-04T05:33:43.880Z,56.36
2023-03-04T05:36:11.072Z,56.70
2023-03-04T05:38:38.583Z,57.96
2023-03-04T05:41:06.464Z,57.59
2023-03-04T05:43:36.075Z,57.80
2023-03-04T05:46:04.455Z,56.65
2023-03-04T05:48:32.026Z,57.79
2023-03-04T05:51:00.733Z,57.35
2023-03-04T05:53:28.714Z,58.98
2023-03-04T05:55:56.214Z,57.08
2023-03-04T05:58:23.673Z,56.82
2023-03-04T06:00:51.493Z,57.31
2023-03-04T06:03:22.127Z,58.08
2023-03-04T06:05:49.525Z,58.51
2023-03-04T06:08:16.961Z,57.86
2023-03-04T06:10:45.418Z,58.24
2023-03-04T06:13:12.974Z,58.39
2023-03-04T06:15:40.417Z,57.74
2023-03-04T06:18:08.352Z,57.82
2023-03-04T06:20:35.625Z,57.52
2023-03-04T06:23:03.849Z,56.60
2023-03-04T06:25:31.746Z,55.58
2023-03-04T06:27:59.583Z,57.90
2023-03-04T06:30:27.457Z,59.77
2023-03-04T06:32:55.179Z,58.49
2023-03-04T06:35:22.506Z,57.13
2023-03-04T06:37:49.854Z,58.88
2023-03-04T06:40:17.565Z,56.46
2023-03-04T06:42:44.950Z,55.98
2023-03-04T06:45:12.390Z,57.08
2023-03-04T06:47:40.387Z,58.48
2023-03-04T06:50:07.855Z,57.16
2023-03-04T06:52:35.164Z,57.15
2023-03-04T06:55:02.613Z,60.64
2023-03-04T06:57:30.071Z,55.13
2023-03-04T06:59:57.367Z,56.15
2023-03-04T07:02:25.021Z,58.46
2023-03-04T07:04:52.299Z,56.53
2023-03-04T07:07:19.584Z,55.06
2023-03-04T07:09:47.423Z,55.81
2023-03-04T07:12:14.915Z,56.72
2023-03-04T07:14:42.306Z,57.30
2023-03-04T07:17:10.232Z,57.82
2023-03-04T07:19:38.105Z,57.53
2023-03-04T07:22:05.519Z,55.71
2023-03-04T07:24:33.146Z,53.62
2023-03-04T07:27:00.713Z,53.76
2023-03-04T07:29:28.204Z,52.66
2023-03-04T07:31:56.005Z,55.01
2023-03-04T07:34:23.400Z,56.88
2023-03-04T07:36:50.700Z,57.47
2023-03-04T07:39:18.372Z,56.06
2023-03-04T07:41:45.802Z,54.97
2023-03-04T07:44:13.639Z,57.24
2023-03-04T07:46:41.425Z,56.35
2023-03-04T07:49:08.804Z,54.96
2023-03-04T07:51:37.153Z,54.99
2023-03-04T07:54:04.859Z,55.70
2023-03-04T07:56:33.710Z,54.86
2023-03-04T07:59:01.644Z,54.29
2023-03-04T08:01:37.410Z,54.17
2023-03-04T08:04:06.618Z,53.43
2023-03-04T08:06:36.086Z,52.48
2023-03-04T08:09:08.797Z,52.23
2023-03-04T08:11:37.855Z,52.81
2023-03-04T08:14:05.334Z,53.01
2023-03-04T08:16:33.137Z,52.40
2023-03-04T08:19:02.503Z,50.26
2023-03-04T08:21:31.072Z,49.55
2023-03-04T08:24:02.451Z,49.96
2023-03-04T08:26:33.976Z,50.02
2023-03-04T08:29:02.953Z,52.64
2023-03-04T08:31:31.596Z,49.29
2023-03-04T08:33:59.008Z,48.21
2023-03-04T08:36:26.462Z,47.55
2023-03-04T08:38:54.160Z,48.01
2023-03-04T08:41:22.792Z,48.44
2023-03-04T08:43:50.258Z,47.99
2023-03-04T08:46:18.142Z,47.41
2023-03-04T08:48:45.538Z,47.75
2023-03-04T08:51:14.627Z,47.30
2023-03-04T08:53:45.294Z,46.41
2023-03-04T08:56:13.183Z,47.18
2023-03-04T08:58:40.866Z,44.89
2023-03-04T09:01:10.687Z,45.41
2023-03-04T09:03:38.817Z,44.37
2023-03-04T09:06:09.149Z,43.56
2023-03-04T09:08:37.044Z,43.43
2023-03-04T09:11:04.550Z,43.94
2023-03-04T09:13:32.607Z,44.13
2023-03-04T09:16:01.091Z,43.50
2023-03-04T09:18:29.043Z,43.16
2023-03-04T09:20:56.434Z,42.83
2023-03-04T09:23:24.134Z,44.06
2023-03-04T09:25:51.630Z,44.34
2023-03-04T09:31:11.873Z,44.52
2023-03-04T09:33:41.566Z,44.92
2023-03-04T09:36:11.343Z,44.08
2023-03-04T09:38:39.323Z,45.71
2023-03-04T09:41:16.223Z,43.98
2023-03-04T09:43:44.566Z,43.29
2023-03-04T09:46:16.167Z,44.92
2023-03-04T09:48:47.909Z,44.71
2023-03-04T09:51:17.989Z,43.88
2023-03-04T09:53:48.697Z,45.77
2023-03-04T09:56:16.265Z,45.67
2023-03-04T09:58:48.785Z,45.61
2023-03-04T10:01:22.841Z,45.79
2023-03-04T10:04:05.674Z,42.11
2023-03-04T10:06:33.997Z,42.45
2023-03-04T10:09:05.179Z,43.15
2023-03-04T10:11:41.007Z,43.44
2023-03-04T10:14:19.837Z,41.89
2023-03-04T10:16:53.713Z,43.43
2023-03-04T10:19:44.291Z,43.71
2023-03-04T10:22:36.941Z,42.22
2023-03-04T10:25:19.655Z,41.83
2023-03-04T10:27:59.928Z,41.77
2023-03-04T10:31:01.510Z,40.62
2023-03-04T10:33:39.948Z,40.98
2023-03-04T10:36:36.853Z,41.08
2023-03-04T10:39:19.552Z,39.92
2023-03-04T10:42:14.397Z,40.54
2023-03-04T10:44:51.405Z,39.84
2023-03-04T10:47:19.122Z,39.77
2023-03-04T10:50:00.777Z,38.30
2023-03-04T10:52:29.788Z,37.09
2023-03-04T10:55:06.549Z,38.77
2023-03-04T10:57:41.905Z,38.41
2023-03-04T11:00:18.329Z,37.95
2023-03-04T11:02:47.478Z,39.20
2023-03-04T11:05:14.779Z,37.75
2023-03-04T11:07:55.247Z,38.35
2023-03-04T11:10:38.887Z,39.34
2023-03-04T11:13:22.013Z,36.20
2023-03-04T11:15:51.428Z,36.49
2023-03-04T11:18:43.872Z,38.67
2023-03-04T11:21:20.132Z,36.96
2023-03-04T11:23:52.260Z,37.50
2023-03-04T11:26:27.571Z,38.53
2023-03-04T11:29:16.008Z,35.64
2023-03-04T11:31:50.303Z,34.58
2023-03-04T11:34:17.632Z,35.40
2023-03-04T11:36:57.401Z,34.36
2023-03-04T11:39:30.720Z,34.18
2023-03-04T11:42:23.478Z,35.38
2023-03-04T11:44:51.887Z,35.21
2023-03-04T11:47:28.923Z,37.37
2023-03-04T11:50:35.095Z,36.51
2023-03-04T11:53:02.737Z,36.45
2023-03-04T11:55:35.838Z,36.23
2023-03-04T11:58:21.991Z,34.92
2023-03-04T12:01:10.433Z,36.26
2023-03-04T12:04:12.496Z,35.78
2023-03-04T12:07:01.292Z,37.13
2023-03-04T12:09:51.835Z,36.07
2023-03-04T12:12:53.305Z,36.21
2023-03-04T12:15:29.712Z,37.52
2023-03-04T12:18:18.676Z,36.52
2023-03-04T12:20:59.885Z,37.49
2023-03-04T12:23:27.227Z,36.69
2023-03-04T12:26:27.071Z,37.57
2023-03-04T12:28:56.990Z,38.36
2023-03-04T12:31:30.574Z,36.78
2023-03-04T12:34:19.441Z,38.24
2023-03-04T12:37:20.236Z,36.79
2023-03-04T12:40:26.702Z,36.20
2023-03-04T12:43:16.084Z,35.72
2023-03-04T12:46:05.138Z,35.82
2023-03-04T12:48:37.660Z,35.72
2023-03-04T12:51:15.939Z,38.18
2023-03-04T12:53:58.619Z,35.27
2023-03-04T18:09:35.143Z,48.91
2023-03-04T18:12:05.415Z,48.91
2023-03-04T18:14:33.813Z,48.52
2023-03-04T18:17:02.321Z,49.61
2023-03-04T18:19:30.923Z,49.41
2023-03-04T18:21:59.339Z,50.08
2023-03-04T18:24:27.057Z,50.51
2023-03-04T18:33:20.609Z,53.04
2023-03-04T18:35:49.587Z,52.33
2023-03-04T18:38:17.852Z,52.76
2023-03-04T18:40:45.702Z,53.94
2023-03-04T18:43:14.149Z,54.24
2023-03-04T18:45:44.395Z,55.30
2023-03-04T18:48:12.802Z,54.41
2023-03-04T18:50:43.629Z,54.07
2023-03-04T18:53:12.698Z,53.53
2023-03-04T18:55:43.145Z,54.04
2023-03-04T18:58:12.273Z,56.40
2023-03-04T19:00:40.344Z,55.85
2023-03-04T19:03:10.070Z,56.00
2023-03-04T19:05:39.775Z,56.83
2023-03-04T19:08:08.175Z,56.60
2023-03-04T19:10:36.554Z,57.38
2023-03-04T19:13:05.924Z,58.19
2023-03-04T19:15:38.051Z,59.09
2023-03-04T19:18:07.237Z,59.55
2023-03-04T19:20:41.091Z,58.51
2023-03-04T19:23:10.678Z,59.84
2023-03-04T19:25:39.426Z,60.20
2023-03-04T19:28:07.642Z,59.99
2023-03-04T19:30:42.243Z,59.55
2023-03-04T19:33:10.990Z,60.13
2023-03-04T19:35:41.896Z,60.45
2023-03-04T19:38:10.536Z,60.76
2023-03-04T19:40:40.464Z,60.05
2023-03-04T19:43:08.805Z,60.81
2023-03-04T19:45:38.431Z,60.05
2023-03-04T19:48:06.931Z,60.33
2023-03-04T19:50:35.098Z,61.44
2023-03-04T19:53:03.312Z,62.03
2023-03-04T19:55:32.110Z,60.14
2023-03-04T19:58:01.125Z,62.98
2023-03-04T20:00:29.814Z,60.59
2023-03-04T20:02:58.950Z,61.74
2023-03-04T20:05:29.559Z,58.24
2023-03-04T20:07:57.665Z,58.77
2023-03-04T20:10:26.757Z,56.25
2023-03-04T20:12:58.919Z,56.63
2023-03-04T20:15:28.161Z,57.23
2023-03-04T20:18:00.312Z,56.70
2023-03-04T20:20:29.880Z,56.23
2023-03-04T20:22:59.581Z,55.07
2023-03-04T20:25:29.473Z,54.75
2023-03-04T20:27:59.298Z,56.08
2023-03-04T20:30:30.065Z,55.46
2023-03-04T20:32:58.409Z,55.61
2023-03-04T20:35:26.486Z,54.25
2023-03-04T20:37:55.168Z,54.40
2023-03-04T20:40:24.520Z,54.27
2023-03-04T20:42:53.260Z,54.65
2023-03-04T20:45:22.668Z,52.38
2023-03-04T20:47:52.627Z,53.66
2023-03-04T20:50:20.528Z,53.07
2023-03-04T20:52:48.748Z,52.75
2023-03-04T20:55:16.663Z,53.74
2023-03-04T20:57:44.935Z,52.77
2023-03-04T21:00:15.743Z,53.56
2023-03-04T21:02:44.351Z,53.37
2023-03-04T21:05:14.276Z,53.89
2023-03-04T21:07:43.252Z,53.61
2023-03-04T21:10:11.600Z,55.27
2023-03-04T21:12:39.923Z,55.20
2023-03-04T21:15:07.954Z,57.03
2023-03-04T21:17:36.781Z,57.96
2023-03-04T21:20:04.949Z,57.69
2023-03-04T21:22:32.465Z,60.01
2023-03-04T21:25:03.394Z,60.05
2023-03-04T21:27:31.479Z,58.64
2023-03-04T21:29:59.114Z,63.22
2023-03-04T21:32:28.833Z,59.34
2023-03-04T21:34:58.236Z,57.98
2023-03-04T21:37:26.100Z,57.48
2023-03-04T21:39:54.342Z,58.61
2023-03-04T21:42:25.982Z,58.56
2023-03-04T21:44:54.005Z,59.49
2023-03-04T21:47:21.624Z,61.73
2023-03-04T21:49:49.531Z,62.22
2023-03-04T21:52:17.809Z,61.83
2023-03-04T21:54:45.099Z,61.97
2023-03-04T21:57:14.168Z,62.66
2023-03-04T21:59:42.026Z,62.76
2023-03-04T22:02:14.378Z,62.52
2023-03-04T22:04:42.455Z,63.74
2023-03-04T22:07:09.960Z,64.63
2023-03-04T22:09:37.801Z,62.61
2023-03-04T22:12:06.232Z,61.69
2023-03-04T22:14:33.812Z,62.36
2023-03-04T22:17:01.271Z,63.45
2023-03-04T22:19:31.853Z,63.66
2023-03-04T22:21:59.823Z,64.21
2023-03-04T22:24:27.573Z,64.30
2023-03-04T22:26:57.623Z,64.37
2023-03-04T22:29:25.050Z,64.55
2023-03-04T22:31:52.465Z,65.12
2023-03-04T22:34:20.211Z,65.71
2023-03-04T22:36:49.260Z,65.40
2023-03-04T22:39:21.188Z,65.40
2023-03-04T22:41:49.028Z,66.13
2023-03-04T22:44:16.475Z,66.29
2023-03-04T22:46:44.555Z,66.57
2023-03-04T22:49:13.651Z,66.45
2023-03-04T22:51:43.775Z,66.13
2023-03-04T22:54:15.708Z,66.04
2023-03-04T22:56:44.018Z,65.59
2023-03-04T22:59:11.475Z,65.56
2023-03-04T23:01:38.913Z,65.87
2023-03-04T23:04:06.658Z,65.94
2023-03-04T23:06:34.595Z,66.33
2023-03-04T23:09:01.970Z,66.19
2023-03-04T23:11:31.801Z,66.62
2023-03-04T23:14:02.116Z,66.23
2023-03-04T23:16:29.992Z,66.76
2023-03-04T23:18:59.396Z,65.64
2023-03-04T23:21:28.404Z,66.40
2023-03-04T23:23:56.168Z,66.73
2023-03-04T23:26:26.245Z,66.20
2023-03-04T23:28:55.757Z,67.04
2023-03-04T23:31:23.636Z,67.05
2023-03-04T23:33:51.170Z,66.65
2023-03-04T23:36:19.782Z,67.05
2023-03-04T23:38:48.516Z,67.05
2023-03-04T23:41:18.364Z,66.96
2023-03-04T23:43:46.975Z,67.03
2023-03-04T23:46:15.377Z,67.03
2023-03-04T23:48:46.516Z,67.13
2023-03-04T23:51:15.292Z,66.84
2023-03-04T23:53:43.495Z,66.97
2023-03-04T23:56:12.427Z,66.61
2023-03-04T23:58:41.317Z,66.62
